sensor_id;sensor_type;location;lat;lon;timestamp;P1;durP1;ratioP1;P2;durP2;ratioP2
35757;SDS011;21879;50.110;18.900;2023-07-22T00:05:25;7.40;;;6.30;;
35757;SDS011;21879;50.110;18.900;2023-07-22T00:15:53;8.30;;;6.80;;
35757;SDS011;21879;50.110;18.900;2023-07-22T00:26:22;7.30;;;6.40;;
35757;SDS011;21879;50.110;18.900;2023-07-22T00:36:50;7.40;;;6.60;;
35757;SDS011;21879;50.110;18.900;2023-07-22T00:47:17;6.80;;;6.10;;
35757;SDS011;21879;50.110;18.900;2023-07-22T00:57:45;8.80;;;6.20;;
35757;SDS011;21879;50.110;18.900;2023-07-22T01:08:13;7.00;;;5.90;;
35757;SDS011;21879;50.110;18.900;2023-07-22T01:18:41;9.00;;;6.90;;
35757;SDS011;21879;50.110;18.900;2023-07-22T01:29:09;7.80;;;6.50;;
35757;SDS011;21879;50.110;18.900;2023-07-22T01:39:37;8.60;;;6.30;;
35757;SDS011;21879;50.110;18.900;2023-07-22T01:50:05;7.00;;;4.80;;
35757;SDS011;21879;50.110;18.900;2023-07-22T02:00:34;6.70;;;4.60;;
35757;SDS011;21879;50.110;18.900;2023-07-22T02:11:02;7.90;;;4.60;;
35757;SDS011;21879;50.110;18.900;2023-07-22T02:21:31;6.60;;;4.70;;
35757;SDS011;21879;50.110;18.900;2023-07-22T02:31:59;5.90;;;4.60;;
35757;SDS011;21879;50.110;18.900;2023-07-22T02:42:27;5.40;;;3.80;;
35757;SDS011;21879;50.110;18.900;2023-07-22T02:52:54;6.70;;;4.20;;
35757;SDS011;21879;50.110;18.900;2023-07-22T03:03:22;7.80;;;5.30;;
35757;SDS011;21879;50.110;18.900;2023-07-22T03:13:49;11.00;;;7.50;;
35757;SDS011;21879;50.110;18.900;2023-07-22T03:24:18;13.00;;;9.50;;
35757;SDS011;21879;50.110;18.900;2023-07-22T03:34:45;14.10;;;9.20;;
35757;SDS011;21879;50.110;18.900;2023-07-22T03:45:13;13.10;;;8.00;;
35757;SDS011;21879;50.110;18.900;2023-07-22T03:55:41;9.70;;;7.80;;
35757;SDS011;21879;50.110;18.900;2023-07-22T04:06:09;10.90;;;7.60;;
35757;SDS011;21879;50.110;18.900;2023-07-22T04:16:36;12.60;;;6.40;;
35757;SDS011;21879;50.110;18.900;2023-07-22T04:27:04;8.30;;;6.40;;
35757;SDS011;21879;50.110;18.900;2023-07-22T04:37:32;8.20;;;6.00;;
35757;SDS011;21879;50.110;18.900;2023-07-22T04:48:00;7.90;;;5.20;;
35757;SDS011;21879;50.110;18.900;2023-07-22T04:58:28;11.00;;;5.90;;
35757;SDS011;21879;50.110;18.900;2023-07-22T05:08:56;8.30;;;5.90;;
35757;SDS011;21879;50.110;18.900;2023-07-22T05:19:23;9.50;;;7.20;;
35757;SDS011;21879;50.110;18.900;2023-07-22T05:29:51;10.60;;;8.00;;
35757;SDS011;21879;50.110;18.900;2023-07-22T05:40:19;12.50;;;7.50;;
35757;SDS011;21879;50.110;18.900;2023-07-22T05:50:47;10.40;;;5.70;;
35757;SDS011;21879;50.110;18.900;2023-07-22T06:01:14;9.10;;;7.30;;
35757;SDS011;21879;50.110;18.900;2023-07-22T06:11:42;7.40;;;6.30;;
35757;SDS011;21879;50.110;18.900;2023-07-22T06:22:10;7.60;;;6.20;;
35757;SDS011;21879;50.110;18.900;2023-07-22T06:32:38;10.10;;;6.20;;
35757;SDS011;21879;50.110;18.900;2023-07-22T06:43:06;8.30;;;7.00;;
35757;SDS011;21879;50.110;18.900;2023-07-22T06:53:33;7.80;;;5.50;;
35757;SDS011;21879;50.110;18.900;2023-07-22T07:04:01;6.20;;;4.80;;
35757;SDS011;21879;50.110;18.900;2023-07-22T07:14:30;5.90;;;3.90;;
35757;SDS011;21879;50.110;18.900;2023-07-22T07:24:58;8.40;;;6.40;;
35757;SDS011;21879;50.110;18.900;2023-07-22T07:35:26;6.80;;;5.50;;
35757;SDS011;21879;50.110;18.900;2023-07-22T07:56:43;6.00;;;2.80;;
35757;SDS011;21879;50.110;18.900;2023-07-22T08:07:14;3.40;;;2.50;;
35757;SDS011;21879;50.110;18.900;2023-07-22T08:17:42;2.90;;;2.30;;
35757;SDS011;21879;50.110;18.900;2023-07-22T08:28:10;4.60;;;2.00;;
35757;SDS011;21879;50.110;18.900;2023-07-22T08:38:38;3.10;;;1.80;;
35757;SDS011;21879;50.110;18.900;2023-07-22T08:49:05;4.10;;;2.50;;
35757;SDS011;21879;50.110;18.900;2023-07-22T08:59:34;2.30;;;2.00;;
35757;SDS011;21879;50.110;18.900;2023-07-22T09:10:03;3.60;;;1.80;;
35757;SDS011;21879;50.110;18.900;2023-07-22T09:20:32;2.30;;;2.00;;
35757;SDS011;21879;50.110;18.900;2023-07-22T09:31:02;2.40;;;1.90;;
35757;SDS011;21879;50.110;18.900;2023-07-22T09:41:30;3.40;;;3.00;;
35757;SDS011;21879;50.110;18.900;2023-07-22T09:51:57;3.10;;;2.00;;
35757;SDS011;21879;50.110;18.900;2023-07-22T10:02:27;2.50;;;2.20;;
35757;SDS011;21879;50.110;18.900;2023-07-22T10:12:57;5.80;;;4.50;;
35757;SDS011;21879;50.110;18.900;2023-07-22T10:23:25;3.10;;;2.40;;
35757;SDS011;21879;50.110;18.900;2023-07-22T10:33:55;2.70;;;1.90;;
35757;SDS011;21879;50.110;18.900;2023-07-22T10:44:25;2.20;;;1.60;;
35757;SDS011;21879;50.110;18.900;2023-07-22T10:54:52;2.80;;;1.70;;
35757;SDS011;21879;50.110;18.900;2023-07-22T11:05:23;2.40;;;2.20;;
35757;SDS011;21879;50.110;18.900;2023-07-22T11:16:18;2.60;;;1.80;;
35757;SDS011;21879;50.110;18.900;2023-07-22T11:26:46;2.20;;;2.00;;
35757;SDS011;21879;50.110;18.900;2023-07-22T11:37:14;2.70;;;2.10;;
35757;SDS011;21879;50.110;18.900;2023-07-22T11:47:43;2.30;;;1.80;;
35757;SDS011;21879;50.110;18.900;2023-07-22T11:58:11;3.30;;;2.50;;
35757;SDS011;21879;50.110;18.900;2023-07-22T12:08:44;4.40;;;2.80;;
35757;SDS011;21879;50.110;18.900;2023-07-22T12:19:12;4.30;;;3.80;;
35757;SDS011;21879;50.110;18.900;2023-07-22T12:29:39;5.70;;;4.80;;
35757;SDS011;21879;50.110;18.900;2023-07-22T12:40:08;5.10;;;3.90;;
35757;SDS011;21879;50.110;18.900;2023-07-22T12:50:37;7.70;;;4.80;;
35757;SDS011;21879;50.110;18.900;2023-07-22T13:01:05;5.00;;;4.00;;
35757;SDS011;21879;50.110;18.900;2023-07-22T13:11:32;3.70;;;3.10;;
35757;SDS011;21879;50.110;18.900;2023-07-22T13:22:00;4.30;;;2.80;;
35757;SDS011;21879;50.110;18.900;2023-07-22T13:32:28;4.90;;;3.90;;
35757;SDS011;21879;50.110;18.900;2023-07-22T13:42:56;3.80;;;3.30;;
35757;SDS011;21879;50.110;18.900;2023-07-22T13:53:24;6.30;;;4.50;;
35757;SDS011;21879;50.110;18.900;2023-07-22T14:03:51;4.60;;;2.90;;
35757;SDS011;21879;50.110;18.900;2023-07-22T14:14:19;4.50;;;2.60;;
35757;SDS011;21879;50.110;18.900;2023-07-22T14:24:53;4.10;;;3.10;;
35757;SDS011;21879;50.110;18.900;2023-07-22T14:35:21;2.90;;;2.30;;
35757;SDS011;21879;50.110;18.900;2023-07-22T14:45:49;3.70;;;2.10;;
35757;SDS011;21879;50.110;18.900;2023-07-22T14:56:16;3.10;;;2.30;;
35757;SDS011;21879;50.110;18.900;2023-07-22T15:06:44;2.70;;;2.40;;
35757;SDS011;21879;50.110;18.900;2023-07-22T15:17:11;4.10;;;2.50;;
35757;SDS011;21879;50.110;18.900;2023-07-22T15:27:39;4.30;;;2.40;;
35757;SDS011;21879;50.110;18.900;2023-07-22T15:38:08;4.40;;;2.40;;
35757;SDS011;21879;50.110;18.900;2023-07-22T15:48:35;3.00;;;2.60;;
35757;SDS011;21879;50.110;18.900;2023-07-22T15:59:03;2.80;;;2.60;;
35757;SDS011;21879;50.110;18.900;2023-07-22T16:09:31;3.10;;;2.30;;
35757;SDS011;21879;50.110;18.900;2023-07-22T16:19:58;2.60;;;2.00;;
35757;SDS011;21879;50.110;18.900;2023-07-22T16:30:27;4.40;;;2.80;;
35757;SDS011;21879;50.110;18.900;2023-07-22T16:40:55;5.70;;;2.50;;
35757;SDS011;21879;50.110;18.900;2023-07-22T16:51:23;4.20;;;3.40;;
35757;SDS011;21879;50.110;18.900;2023-07-22T17:01:51;3.30;;;2.90;;
35757;SDS011;21879;50.110;18.900;2023-07-22T17:12:19;3.30;;;3.00;;
35757;SDS011;21879;50.110;18.900;2023-07-22T17:22:46;4.20;;;2.70;;
35757;SDS011;21879;50.110;18.900;2023-07-22T17:33:14;4.10;;;2.70;;
35757;SDS011;21879;50.110;18.900;2023-07-22T17:43:42;4.60;;;2.70;;
35757;SDS011;21879;50.110;18.900;2023-07-22T17:54:09;3.80;;;2.60;;
35757;SDS011;21879;50.110;18.900;2023-07-22T18:04:37;4.10;;;2.60;;
35757;SDS011;21879;50.110;18.900;2023-07-22T18:15:05;3.70;;;2.80;;
35757;SDS011;21879;50.110;18.900;2023-07-22T18:25:34;4.40;;;3.30;;
35757;SDS011;21879;50.110;18.900;2023-07-22T18:36:02;4.90;;;3.90;;
35757;SDS011;21879;50.110;18.900;2023-07-22T18:46:31;7.50;;;5.90;;
35757;SDS011;21879;50.110;18.900;2023-07-22T18:56:58;5.10;;;4.30;;
35757;SDS011;21879;50.110;18.900;2023-07-22T19:07:26;7.60;;;6.00;;
35757;SDS011;21879;50.110;18.900;2023-07-22T19:17:53;9.00;;;7.20;;
35757;SDS011;21879;50.110;18.900;2023-07-22T19:28:21;10.30;;;8.70;;
35757;SDS011;21879;50.110;18.900;2023-07-22T19:38:49;13.00;;;10.00;;
35757;SDS011;21879;50.110;18.900;2023-07-22T19:49:17;13.10;;;9.60;;
35757;SDS011;21879;50.110;18.900;2023-07-22T19:59:44;7.20;;;5.30;;
35757;SDS011;21879;50.110;18.900;2023-07-22T20:10:12;6.90;;;5.10;;
35757;SDS011;21879;50.110;18.900;2023-07-22T20:20:39;6.30;;;5.50;;
35757;SDS011;21879;50.110;18.900;2023-07-22T20:31:07;9.70;;;6.60;;
35757;SDS011;21879;50.110;18.900;2023-07-22T20:41:35;9.90;;;6.30;;
35757;SDS011;21879;50.110;18.900;2023-07-22T20:52:03;10.00;;;7.40;;
35757;SDS011;21879;50.110;18.900;2023-07-22T21:02:31;9.80;;;6.90;;
35757;SDS011;21879;50.110;18.900;2023-07-22T21:12:59;8.40;;;7.40;;
35757;SDS011;21879;50.110;18.900;2023-07-22T21:23:27;8.30;;;6.70;;
35757;SDS011;21879;50.110;18.900;2023-07-22T21:33:54;7.70;;;5.90;;
35757;SDS011;21879;50.110;18.900;2023-07-22T21:44:38;12.00;;;10.10;;
35757;SDS011;21879;50.110;18.900;2023-07-22T21:55:06;11.00;;;8.40;;
35757;SDS011;21879;50.110;18.900;2023-07-22T22:05:34;9.20;;;8.10;;
35757;SDS011;21879;50.110;18.900;2023-07-22T22:16:02;14.10;;;11.60;;
35757;SDS011;21879;50.110;18.900;2023-07-22T22:26:29;10.90;;;9.80;;
35757;SDS011;21879;50.110;18.900;2023-07-22T22:36:57;13.80;;;11.30;;
35757;SDS011;21879;50.110;18.900;2023-07-22T22:47:25;11.30;;;10.10;;
35757;SDS011;21879;50.110;18.900;2023-07-22T22:57:52;12.50;;;10.80;;
35757;SDS011;21879;50.110;18.900;2023-07-22T23:08:20;15.80;;;12.30;;
35757;SDS011;21879;50.110;18.900;2023-07-22T23:18:48;15.80;;;12.40;;
35757;SDS011;21879;50.110;18.900;2023-07-22T23:29:16;12.80;;;10.20;;
35757;SDS011;21879;50.110;18.900;2023-07-22T23:39:43;13.10;;;10.60;;
35757;SDS011;21879;50.110;18.900;2023-07-22T23:50:11;13.40;;;11.70;;
